Time;durP1;ratioP1;P1;durP2;ratioP2;P2;SDS_P1;SDS_P2;PMS_P1;PMS_P2;Temp;Humidity;BMP_temperature;BMP_pressure;BME280_temperature;BME280_humidity;BME280_pressure;Samples;Min_cycle;Max_cycle;Signal;HPM_P1;HPM_P2
2021/04/12 00:01:41;;;;;;;6.53;5.90;;;;;;;2.76;100.00;96740.56;4974494;28;20172;-62
2021/04/12 00:04:15;;;;;;;5.20;4.80;;;;;;;2.58;100.00;96754.84;4947275;28;20554;-63
2021/04/12 00:06:50;;;;;;;5.43;4.93;;;;;;;2.51;100.00;96757.31;4973232;28;20173;-62
2021/04/12 00:09:39;;;;;;;6.00;5.50;;;;;;;2.41;100.00;96749.03;4974765;28;20207;-62
2021/04/12 00:12:14;;;;;;;7.43;6.63;;;;;;;2.44;100.00;96746.91;4974925;28;20212;-62
2021/04/12 00:14:54;;;;;;;6.20;5.70;;;;;;;2.33;100.00;96749.91;4956766;28;20179;-62
2021/04/12 00:17:24;;;;;;;6.67;6.07;;;;;;;2.19;100.00;96755.03;4957050;28;20193;-63
2021/04/12 00:19:59;;;;;;;6.83;6.23;;;;;;;2.25;100.00;96757.72;4974015;28;20193;-62
2021/04/12 00:22:30;;;;;;;6.97;6.27;;;;;;;2.21;100.00;96768.59;4974541;28;20203;-62
2021/04/12 00:25:02;;;;;;;7.20;6.50;;;;;;;2.29;100.00;96765.94;4973854;28;20200;-62
2021/04/12 00:27:40;;;;;;;7.17;6.53;;;;;;;2.20;100.00;96774.75;4974153;28;20200;-62
2021/04/12 00:30:23;;;;;;;5.80;5.30;;;;;;;2.20;100.00;96785.91;4974504;28;20187;-62
2021/04/12 00:33:03;;;;;;;6.57;5.97;;;;;;;2.10;100.00;96795.66;4973869;28;20253;-62
2021/04/12 00:35:36;;;;;;;5.50;5.00;;;;;;;1.85;100.00;96794.22;4974196;28;20184;-62
2021/04/12 00:38:02;;;;;;;6.57;5.87;;;;;;;1.78;100.00;96809.63;4974993;28;20220;-62
2021/04/12 00:41:01;;;;;;;6.20;5.60;;;;;;;1.65;100.00;96802.44;4974300;28;20211;-63
2021/04/12 00:43:58;;;;;;;6.50;5.90;;;;;;;1.70;100.00;96806.28;4973871;28;20176;-63
2021/04/12 00:46:26;;;;;;;7.33;6.50;;;;;;;1.85;100.00;96818.28;4974256;28;20543;-63
2021/04/12 00:49:15;;;;;;;8.33;7.30;;;;;;;1.87;100.00;96824.09;4973133;28;20591;-63
2021/04/12 00:52:11;;;;;;;7.60;6.80;;;;;;;1.71;100.00;96826.78;4956396;28;20252;-64
2021/04/12 00:54:55;;;;;;;7.67;6.93;;;;;;;1.70;100.00;96832.09;4962538;28;20205;-63
2021/04/12 00:57:43;;;;;;;9.00;7.20;;;;;;;1.71;100.00;96846.63;4967988;28;20200;-64
2021/04/12 01:00:23;;;;;;;8.43;7.63;;;;;;;1.77;100.00;96840.78;4956284;28;20209;-63
2021/04/12 01:03:30;;;;;;;8.17;7.33;;;;;;;1.76;100.00;96852.91;4972770;28;20582;-64
2021/04/12 01:06:13;;;;;;;7.30;6.60;;;;;;;1.88;100.00;96853.31;4912905;29;20194;-63
2021/04/12 01:09:02;;;;;;;8.50;7.37;;;;;;;1.93;100.00;96862.19;4969824;28;20220;-63
2021/04/12 01:11:52;;;;;;;7.73;6.93;;;;;;;1.93;100.00;96856.19;4943355;28;20184;-63
2021/04/12 01:14:41;;;;;;;7.83;6.90;;;;;;;1.72;100.00;96859.41;4973306;28;20184;-63
2021/04/12 01:17:37;;;;;;;6.97;6.27;;;;;;;1.70;100.00;96863.91;4973183;28;20650;-62
2021/04/12 01:20:24;;;;;;;7.50;6.80;;;;;;;1.73;100.00;96867.94;4972682;28;20654;-62
2021/04/12 01:23:17;;;;;;;6.33;5.73;;;;;;;1.55;100.00;96879.31;4971976;28;20191;-64
2021/04/12 01:26:03;;;;;;;7.57;6.87;;;;;;;1.54;100.00;96869.97;4972656;28;20255;-63
2021/04/12 01:29:02;;;;;;;10.33;7.53;;;;;;;1.55;100.00;96881.09;4972955;28;20220;-63
2021/04/12 01:32:05;;;;;;;9.53;8.10;;;;;;;1.51;100.00;96882.38;4960264;28;20638;-62
2021/04/12 01:34:42;;;;;;;9.70;8.30;;;;;;;1.37;100.00;96893.44;4973312;28;20172;-63
2021/04/12 01:37:07;;;;;;;11.40;8.33;;;;;;;1.46;100.00;96893.22;4956995;28;20195;-63
2021/04/12 01:39:44;;;;;;;9.83;7.63;;;;;;;1.43;100.00;96896.16;4972734;28;20176;-62
2021/04/12 01:42:38;;;;;;;11.17;8.60;;;;;;;1.47;100.00;96900.00;4972984;28;20184;-63
2021/04/12 01:45:39;;;;;;;11.27;8.33;;;;;;;1.56;100.00;96890.47;4954648;28;20189;-63
2021/04/12 01:48:38;;;;;;;8.27;7.47;;;;;;;1.46;100.00;96906.13;4959313;28;20307;-63
2021/04/12 01:51:16;;;;;;;9.67;7.70;;;;;;;1.32;100.00;96898.28;4971604;28;20180;-64
2021/04/12 01:53:42;;;;;;;11.07;8.93;;;;;;;1.23;100.00;96910.41;4972070;28;20236;-63
2021/04/12 01:56:26;;;;;;;10.67;8.73;;;;;;;1.31;100.00;96912.97;4955626;28;20187;-62
2021/04/12 01:59:30;;;;;;;10.27;8.47;;;;;;;1.35;100.00;96934.91;4971536;28;20220;-63
2021/04/12 02:02:09;;;;;;;12.13;9.00;;;;;;;1.32;100.00;96931.84;4970959;28;20430;-65
2021/04/12 02:04:45;;;;;;;12.20;8.63;;;;;;;1.34;100.00;96937.66;4972714;28;20719;-63
2021/04/12 02:08:00;;;;;;;10.87;8.77;;;;;;;1.20;100.00;96949.47;4955382;28;20694;-63
2021/04/12 02:10:45;;;;;;;12.17;8.70;;;;;;;1.30;100.00;96968.16;4913936;28;20228;-65
2021/04/12 02:13:47;;;;;;;9.67;8.40;;;;;;;1.32;100.00;96962.81;4972970;28;20255;-62
2021/04/12 02:16:27;;;;;;;10.83;8.73;;;;;;;1.23;100.00;96956.84;4972262;28;20263;-63
2021/04/12 02:19:13;;;;;;;10.77;9.47;;;;;;;1.33;100.00;96956.69;4971970;28;20716;-63
2021/04/12 02:22:01;;;;;;;10.47;8.80;;;;;;;1.35;100.00;96960.72;4972204;28;20268;-64
2021/04/12 02:24:36;;;;;;;11.93;9.40;;;;;;;1.28;100.00;96969.31;4958359;28;20177;-64
2021/04/12 02:27:38;;;;;;;11.30;9.17;;;;;;;1.30;100.00;96967.34;4963155;28;20191;-64
2021/04/12 02:30:22;;;;;;;11.83;9.20;;;;;;;1.22;100.00;96970.75;4950430;28;20659;-63
2021/04/12 02:33:15;;;;;;;10.20;9.03;;;;;;;1.17;100.00;96978.97;4965265;28;20180;-64
2021/04/12 02:36:04;;;;;;;9.83;8.43;;;;;;;1.10;100.00;96988.34;4971517;28;20267;-65
2021/04/12 02:39:01;;;;;;;9.93;8.27;;;;;;;1.18;100.00;96980.59;4972309;28;20179;-63
2021/04/12 02:41:53;;;;;;;12.57;8.43;;;;;;;1.25;100.00;96983.31;4972167;28;20259;-64
2021/04/12 02:44:38;;;;;;;9.90;8.53;;;;;;;0.99;100.00;96993.84;4972188;28;20510;-64
2021/04/12 02:47:20;;;;;;;11.33;8.63;;;;;;;1.01;100.00;96994.47;4971962;28;20185;-63
2021/04/12 02:50:10;;;;;;;10.73;9.27;;;;;;;1.10;100.00;96995.28;4964698;28;20204;-64
2021/04/12 02:52:50;;;;;;;11.97;10.13;;;;;;;1.05;100.00;97005.28;4971615;28;20327;-65
2021/04/12 02:55:32;;;;;;;11.03;9.33;;;;;;;1.00;100.00;97015.28;4972152;28;20195;-65
2021/04/12 02:58:10;;;;;;;10.80;9.10;;;;;;;0.91;100.00;97016.22;4965758;28;20185;-65
2021/04/12 03:00:48;;;;;;;12.00;10.03;;;;;;;0.99;100.00;97018.84;4954855;28;21688;-65
2021/04/12 03:03:41;;;;;;;12.90;10.00;;;;;;;1.05;100.00;97006.09;4972275;28;20176;-65
2021/04/12 03:06:31;;;;;;;13.13;10.23;;;;;;;0.98;100.00;97001.72;4972985;28;20212;-65
2021/04/12 03:09:02;;;;;;;14.03;10.20;;;;;;;1.02;100.00;97001.25;4966001;28;20337;-65
2021/04/12 03:11:52;;;;;;;12.17;9.97;;;;;;;1.03;100.00;97027.84;4971316;28;20188;-65
2021/04/12 03:14:29;;;;;;;10.97;9.27;;;;;;;1.05;100.00;97036.25;4954888;28;20235;-65
2021/04/12 03:17:18;;;;;;;11.80;9.83;;;;;;;1.05;100.00;97028.50;4953862;28;20247;-65
2021/04/12 03:20:17;;;;;;;11.73;9.43;;;;;;;1.12;100.00;97052.69;4971105;28;20264;-65
2021/04/12 03:23:00;;;;;;;11.97;9.63;;;;;;;1.17;100.00;97053.81;4963377;28;20664;-65
2021/04/12 03:26:03;;;;;;;12.37;9.10;;;;;;;1.12;100.00;97050.91;4972265;28;20645;-65
2021/04/12 03:28:50;;;;;;;10.17;8.57;;;;;;;1.12;100.00;97050.91;4972210;28;20196;-64
2021/04/12 03:31:32;;;;;;;11.00;8.97;;;;;;;1.06;100.00;97041.22;4971811;28;20611;-66
2021/04/12 03:34:13;;;;;;;11.37;9.57;;;;;;;0.93;100.00;97037.53;4959655;28;20815;-64
2021/04/12 03:36:38;;;;;;;12.73;10.17;;;;;;;1.07;100.00;97042.03;4957898;28;20195;-64
2021/04/12 03:39:15;;;;;;;11.90;9.87;;;;;;;1.12;100.00;97043.19;4975277;28;20192;-63
2021/04/12 03:42:08;;;;;;;11.97;9.37;;;;;;;1.08;100.00;97051.41;4974114;28;20184;-65
2021/04/12 03:44:48;;;;;;;11.90;9.50;;;;;;;0.95;100.00;97048.50;4975199;28;20227;-64
2021/04/12 03:47:35;;;;;;;11.10;9.30;;;;;;;0.92;100.00;97059.13;4975167;28;20204;-64
2021/04/12 03:50:41;;;;;;;13.47;9.77;;;;;;;0.95;100.00;97075.09;4960068;28;21080;-64
2021/04/12 03:53:25;;;;;;;15.43;10.00;;;;;;;1.00;100.00;97078.03;4974981;28;20252;-64
2021/04/12 03:56:24;;;;;;;12.70;9.30;;;;;;;0.96;100.00;97075.91;4941204;28;20284;-64
2021/04/12 03:59:07;;;;;;;12.13;9.57;;;;;;;0.95;100.00;97072.50;4974057;28;20195;-64
2021/04/12 04:01:53;;;;;;;12.50;9.47;;;;;;;1.06;100.00;97089.50;4974610;28;20197;-64
2021/04/12 04:05:00;;;;;;;12.17;9.43;;;;;;;0.89;100.00;97098.97;4974562;28;20220;-63
2021/04/12 04:07:49;;;;;;;11.83;9.03;;;;;;;0.92;100.00;97108.16;4937587;28;20223;-64
2021/04/12 04:10:14;;;;;;;13.33;9.73;;;;;;;0.96;100.00;97109.44;4974740;28;20192;-65
2021/04/12 04:13:04;;;;;;;11.27;8.93;;;;;;;1.04;100.00;97119.81;4974098;28;20180;-64
2021/04/12 04:15:36;;;;;;;10.70;9.03;;;;;;;1.07;100.00;97111.72;4974605;28;20630;-63
2021/04/12 04:18:20;;;;;;;10.90;9.43;;;;;;;0.94;100.00;97111.41;4973555;28;21075;-64
2021/04/12 04:21:07;;;;;;;14.37;9.43;;;;;;;1.00;100.00;97114.16;4974248;28;20243;-64
2021/04/12 04:23:42;;;;;;;11.77;9.83;;;;;;;0.98;100.00;97123.81;4974722;28;20582;-64
2021/04/12 04:26:36;;;;;;;13.57;10.17;;;;;;;0.96;100.00;97125.75;4973811;28;20176;-64
2021/04/12 04:29:23;;;;;;;11.17;9.60;;;;;;;1.04;100.00;97115.44;4973936;28;20181;-64
2021/04/12 04:32:10;;;;;;;12.93;9.80;;;;;;;1.05;100.00;97124.81;4956556;28;20275;-64
2021/04/12 04:34:50;;;;;;;11.10;9.33;;;;;;;1.01;100.00;97123.50;4960629;28;20177;-64
2021/04/12 04:37:37;;;;;;;13.40;10.53;;;;;;;0.87;100.00;97136.22;4974059;28;20192;-64
2021/04/12 04:40:24;;;;;;;13.83;10.47;;;;;;;0.97;100.00;97145.44;4955996;28;20180;-64
2021/04/12 04:43:18;;;;;;;16.53;11.53;;;;;;;0.93;100.00;97151.06;4973238;28;20180;-64
2021/04/12 04:46:21;;;;;;;16.47;11.50;;;;;;;0.89;100.00;97160.91;4973053;28;20288;-65
2021/04/12 04:49:08;;;;;;;14.77;11.30;;;;;;;0.92;100.00;97168.31;4973346;28;20668;-65
2021/04/12 04:51:38;;;;;;;16.27;11.87;;;;;;;0.82;100.00;97175.38;4972747;28;20336;-65
2021/04/12 04:54:09;;;;;;;17.30;12.00;;;;;;;0.81;100.00;97176.34;4973029;28;20697;-64
2021/04/12 04:57:13;;;;;;;16.93;11.53;;;;;;;0.89;100.00;97173.81;4955957;28;20274;-64
2021/04/12 05:00:19;;;;;;;14.27;11.53;;;;;;;0.80;100.00;97183.25;4970023;28;20191;-64
2021/04/12 05:03:05;;;;;;;15.93;11.33;;;;;;;0.91;100.00;97189.09;4961361;28;20237;-64
2021/04/12 05:05:58;;;;;;;14.80;10.97;;;;;;;0.92;100.00;97188.97;4956561;28;20188;-64
2021/04/12 05:08:44;;;;;;;16.23;11.17;;;;;;;0.89;100.00;97193.63;4959389;28;20209;-64
2021/04/12 05:11:57;;;;;;;13.07;9.70;;;;;;;0.86;100.00;97197.31;4973319;28;20271;-64
2021/04/12 05:14:45;;;;;;;12.63;9.53;;;;;;;0.75;100.00;97205.34;4964533;28;20545;-64
2021/04/12 05:17:40;;;;;;;10.87;9.20;;;;;;;0.84;100.00;97215.53;4973345;28;20535;-63
2021/04/12 05:20:39;;;;;;;11.20;8.53;;;;;;;0.78;100.00;97218.72;4973029;28;20193;-62
2021/04/12 05:23:49;;;;;;;9.60;8.43;;;;;;;0.79;100.00;97217.75;4972804;28;20273;-62
2021/04/12 05:26:44;;;;;;;11.10;8.83;;;;;;;0.83;100.00;97226.81;4945137;28;20533;-63
2021/04/12 05:29:35;;;;;;;12.33;9.67;;;;;;;0.82;100.00;97232.13;4972430;28;20201;-62
2021/04/12 05:32:16;;;;;;;11.50;9.57;;;;;;;0.86;100.00;97240.38;4948250;28;20200;-63
2021/04/12 05:35:15;;;;;;;14.87;9.73;;;;;;;0.95;100.00;97242.03;4955053;28;20238;-63
2021/04/12 05:38:12;;;;;;;12.77;9.77;;;;;;;0.82;100.00;97245.84;4972742;28;20696;-63
2021/04/12 05:40:50;;;;;;;13.27;9.70;;;;;;;0.70;100.00;97246.25;4972612;28;20223;-63
2021/04/12 05:43:43;;;;;;;12.90;9.77;;;;;;;0.61;100.00;97242.03;4973276;28;20185;-63
2021/04/12 05:46:26;;;;;;;13.30;10.07;;;;;;;0.56;100.00;97255.34;4972923;28;20230;-63
2021/04/12 05:49:26;;;;;;;13.10;10.30;;;;;;;0.46;100.00;97262.38;4956868;28;20217;-62
2021/04/12 05:52:13;;;;;;;14.53;11.40;;;;;;;0.51;100.00;97269.66;4971304;28;20199;-62
2021/04/12 05:55:02;;;;;;;15.13;11.53;;;;;;;0.55;100.00;97276.97;4960820;28;20252;-62
2021/04/12 05:57:52;;;;;;;16.17;12.20;;;;;;;0.70;100.00;97282.38;4971982;28;20180;-62
2021/04/12 06:00:50;;;;;;;14.80;11.87;;;;;;;0.75;100.00;97293.84;4972618;28;20184;-62
2021/04/12 06:03:30;;;;;;;14.90;11.40;;;;;;;0.67;100.00;97301.53;4972494;28;20181;-63
2021/04/12 06:06:26;;;;;;;13.93;11.23;;;;;;;0.86;100.00;97299.69;4971879;28;20664;-63
2021/04/12 06:09:28;;;;;;;14.33;11.63;;;;;;;0.92;100.00;97294.75;4954726;28;20578;-63
2021/04/12 06:12:43;;;;;;;14.80;11.57;;;;;;;1.01;100.00;97305.91;4959524;28;20695;-63
2021/04/12 06:15:39;;;;;;;14.90;11.53;;;;;;;1.13;100.00;97312.41;4972466;28;20181;-63
2021/04/12 06:18:53;;;;;;;13.60;11.33;;;;;;;1.21;100.00;97320.22;4971657;28;20244;-63
2021/04/12 06:21:44;;;;;;;14.03;11.60;;;;;;;1.45;100.00;97325.44;4957392;28;20267;-63
2021/04/12 06:24:28;;;;;;;15.20;12.07;;;;;;;1.49;100.00;97326.78;4972056;28;20550;-63
2021/04/12 06:27:11;;;;;;;15.17;12.50;;;;;;;1.45;100.00;97333.19;4971632;28;20172;-64
2021/04/12 06:29:47;;;;;;;16.20;12.27;;;;;;;1.50;100.00;97337.94;4973050;28;20570;-64
2021/04/12 06:32:40;;;;;;;14.33;12.10;;;;;;;1.56;100.00;97342.47;4972378;28;20263;-64
2021/04/12 06:35:26;;;;;;;12.63;11.33;;;;;;;1.51;100.00;97342.91;4963404;28;20273;-64
2021/04/12 06:38:18;;;;;;;14.00;11.87;;;;;;;1.64;100.00;97348.47;4954230;28;20219;-64
2021/04/12 06:41:20;;;;;;;15.80;12.50;;;;;;;1.62;100.00;97352.16;4972010;28;20206;-63
2021/04/12 06:44:06;;;;;;;14.60;12.60;;;;;;;1.76;100.00;97356.72;4970981;28;20215;-64
2021/04/12 06:47:01;;;;;;;16.27;12.97;;;;;;;1.81;100.00;97362.22;4972459;28;20231;-64
2021/04/12 06:50:12;;;;;;;16.07;13.00;;;;;;;1.96;100.00;97373.56;4972534;28;20309;-64
2021/04/12 06:52:46;;;;;;;15.47;12.47;;;;;;;2.02;100.00;97372.94;4956077;28;20319;-64
2021/04/12 06:55:20;;;;;;;13.80;11.83;;;;;;;2.20;100.00;97375.41;4970995;28;20191;-65
2021/04/12 06:58:19;;;;;;;15.20;11.30;;;;;;;2.08;100.00;97382.66;4970725;28;20208;-64
2021/04/12 07:01:03;;;;;;;12.63;10.67;;;;;;;2.03;100.00;97377.16;4953407;28;20280;-64
2021/04/12 07:03:50;;;;;;;16.97;11.33;;;;;;;2.11;100.00;97376.38;4971592;28;20180;-64
2021/04/12 07:06:41;;;;;;;13.23;11.10;;;;;;;2.17;100.00;97385.25;4971896;28;20180;-64
2021/04/12 07:09:32;;;;;;;11.13;10.03;;;;;;;2.09;100.00;97398.97;4974705;28;20189;-63
2021/04/12 07:11:58;;;;;;;12.93;11.13;;;;;;;2.25;100.00;97396.41;4940439;28;20268;-63
2021/04/12 07:14:47;;;;;;;12.20;10.90;;;;;;;2.32;100.00;97402.59;4975467;28;20271;-64
2021/04/12 07:17:37;;;;;;;13.43;11.87;;;;;;;2.39;100.00;97402.75;4958101;28;20220;-64
2021/04/12 07:20:34;;;;;;;14.30;11.70;;;;;;;2.38;100.00;97409.69;4973530;28;20187;-64
2021/04/12 07:23:06;;;;;;;15.00;12.83;;;;;;;2.39;100.00;97418.28;4963171;28;20180;-63
2021/04/12 07:26:06;;;;;;;13.40;12.00;;;;;;;2.31;100.00;97420.84;4975510;28;20185;-64
2021/04/12 07:28:50;;;;;;;13.50;11.70;;;;;;;2.40;100.00;97415.50;4957724;28;20205;-64
2021/04/12 07:31:38;;;;;;;17.23;12.40;;;;;;;2.28;100.00;97418.56;4975376;28;20228;-64
2021/04/12 07:34:33;;;;;;;15.60;13.53;;;;;;;2.25;100.00;97422.28;4974543;28;20219;-64
2021/04/12 07:37:17;;;;;;;16.37;13.70;;;;;;;2.29;100.00;97418.41;4968361;28;20642;-64
2021/04/12 07:40:20;;;;;;;15.97;14.27;;;;;;;2.39;100.00;97432.03;4975007;28;20716;-64
2021/04/12 07:43:24;;;;;;;17.80;14.50;;;;;;;2.36;100.00;97434.09;4974358;28;20203;-64
2021/04/12 07:46:21;;;;;;;17.57;15.03;;;;;;;2.42;100.00;97436.03;4974339;28;20202;-64
2021/04/12 07:49:45;;;;;;;18.80;13.97;;;;;;;2.38;100.00;97439.94;4973715;28;20665;-64
2021/04/12 07:52:51;;;;;;;19.63;15.90;;;;;;;2.33;100.00;97444.78;4897525;29;20202;-64
2021/04/12 07:56:04;;;;;;;20.33;16.60;;;;;;;2.43;100.00;97451.41;4900725;29;20621;-64
2021/04/12 07:58:48;;;;;;;19.37;15.73;;;;;;;2.51;100.00;97463.53;4921305;28;20679;-64
2021/04/12 08:01:24;;;;;;;21.20;16.30;;;;;;;2.77;100.00;97464.25;4957633;28;20192;-66
2021/04/12 08:04:04;;;;;;;17.50;15.60;;;;;;;2.80;100.00;97457.91;4959483;28;20646;-64
2021/04/12 08:06:57;;;;;;;18.53;14.93;;;;;;;2.83;100.00;97466.19;4957290;28;20222;-64
2021/04/12 08:09:28;;;;;;;17.83;14.37;;;;;;;2.75;100.00;97476.53;4957347;28;20211;-64
2021/04/12 08:12:29;;;;;;;20.87;14.13;;;;;;;2.74;100.00;97474.09;4973395;28;20193;-64
2021/04/12 08:15:31;;;;;;;16.23;13.93;;;;;;;2.78;100.00;97480.59;4937317;28;20662;-64
2021/04/12 08:18:11;;;;;;;20.60;14.83;;;;;;;2.68;100.00;97477.31;4956152;28;20184;-64
2021/04/12 08:21:14;;;;;;;18.37;13.67;;;;;;;2.57;100.00;97480.19;4956444;28;20191;-64
2021/04/12 08:24:13;;;;;;;16.93;13.97;;;;;;;2.76;100.00;97483.31;4974896;28;20637;-64
2021/04/12 08:27:01;;;;;;;16.57;14.67;;;;;;;3.10;100.00;97477.19;4961871;28;20183;-64
2021/04/12 08:30:02;;;;;;;17.30;15.30;;;;;;;3.19;100.00;97482.19;4957230;28;20259;-64
2021/04/12 08:33:04;;;;;;;18.03;14.10;;;;;;;3.30;100.00;97488.81;4933645;29;20205;-64
2021/04/12 08:35:48;;;;;;;15.80;13.27;;;;;;;2.89;100.00;97480.25;4973665;28;20200;-64
2021/04/12 08:39:01;;;;;;;15.10;13.47;;;;;;;2.96;100.00;97480.41;4956357;28;20550;-64
2021/04/12 08:41:33;;;;;;;18.30;14.60;;;;;;;2.93;100.00;97497.91;4913133;29;20590;-64
2021/04/12 08:44:10;;;;;;;19.03;13.47;;;;;;;3.02;100.00;97487.53;4951651;28;20201;-64
2021/04/12 08:46:39;;;;;;;17.43;13.77;;;;;;;3.07;100.00;97496.44;4956740;28;20199;-64
2021/04/12 08:49:11;;;;;;;17.33;14.13;;;;;;;3.10;97.54;97498.72;4972635;28;20220;-64
2021/04/12 08:51:57;;;;;;;14.23;12.20;;;;;;;2.82;98.30;97503.38;4956262;28;20169;-64
2021/04/12 08:54:26;;;;;;;15.80;13.30;;;;;;;2.95;96.77;97500.34;4956089;28;20732;-64
2021/04/12 08:57:22;;;;;;;14.77;13.17;;;;;;;3.08;99.51;97505.00;4955408;28;20193;-64
2021/04/12 09:00:22;;;;;;;13.23;11.70;;;;;;;3.19;95.79;97507.28;4972986;28;20220;-66
2021/04/12 09:03:24;;;;;;;16.40;11.80;;;;;;;3.28;93.62;97508.91;4958416;28;20260;-64
2021/04/12 09:06:08;;;;;;;12.53;10.17;;;;;;;3.24;93.89;97523.94;4972476;28;20624;-64
2021/04/12 09:08:56;;;;;;;11.53;9.90;;;;;;;3.19;93.84;97522.81;4972710;28;20196;-64
2021/04/12 09:11:24;;;;;;;12.87;11.07;;;;;;;3.42;94.19;97521.19;4973838;28;20233;-64
2021/04/12 09:14:11;;;;;;;12.77;9.50;;;;;;;3.40;92.60;97525.72;4972760;28;20192;-64
2021/04/12 09:16:54;;;;;;;12.47;10.27;;;;;;;3.43;91.63;97522.00;4958953;28;20180;-64
2021/04/12 09:19:44;;;;;;;13.23;10.13;;;;;;;3.31;91.47;97527.50;4973676;28;20208;-64
2021/04/12 09:22:48;;;;;;;12.60;9.23;;;;;;;3.26;91.74;97537.56;4972653;28;20189;-64
2021/04/12 09:25:32;;;;;;;9.50;8.60;;;;;;;3.56;92.12;97536.09;4962558;28;20192;-64
2021/04/12 09:28:26;;;;;;;10.43;8.67;;;;;;;3.50;90.46;97541.13;4972283;28;20208;-64
2021/04/12 09:31:14;;;;;;;11.13;8.13;;;;;;;3.35;90.71;97546.94;4959192;28;20208;-64
2021/04/12 09:34:05;;;;;;;11.37;9.07;;;;;;;3.43;90.79;97548.72;4971672;28;20180;-64
2021/04/12 09:37:05;;;;;;;11.57;8.70;;;;;;;3.44;90.63;97554.72;4972690;28;20179;-64
2021/04/12 09:39:37;;;;;;;10.43;9.00;;;;;;;3.58;90.28;97548.88;4949948;28;20551;-64
2021/04/12 09:42:30;;;;;;;12.43;8.73;;;;;;;3.71;87.00;97554.38;4956858;28;20256;-64
2021/04/12 09:45:23;;;;;;;13.07;8.33;;;;;;;3.83;87.69;97545.28;4972196;28;20173;-64
2021/04/12 09:48:23;;;;;;;9.47;8.10;;;;;;;3.87;84.30;97546.56;4971818;28;20542;-64
2021/04/12 09:51:12;;;;;;;8.63;7.70;;;;;;;3.96;84.30;97550.75;4972503;28;20275;-64
2021/04/12 09:54:00;;;;;;;7.03;6.43;;;;;;;4.08;81.41;97557.19;4958842;28;20232;-65
2021/04/12 09:56:49;;;;;;;7.97;7.13;;;;;;;4.41;81.88;97554.47;4969113;28;20231;-64
2021/04/12 09:59:33;;;;;;;8.97;6.37;;;;;;;4.44;80.22;97561.94;4972218;28;20188;-66
2021/04/12 10:02:43;;;;;;;8.03;6.00;;;;;;;4.49;81.79;97559.66;4971283;28;20183;-64
2021/04/12 10:05:34;;;;;;;6.50;5.77;;;;;;;4.78;79.01;97559.84;4961541;28;20235;-64
2021/04/12 10:08:20;;;;;;;7.10;5.63;;;;;;;4.46;76.55;97570.34;4971177;28;20283;-64
2021/04/12 10:10:58;;;;;;;7.93;5.13;;;;;;;4.72;77.19;97575.28;4971793;28;20215;-65
2021/04/12 10:13:34;;;;;;;5.63;5.03;;;;;;;4.97;75.47;97582.75;4958031;28;20545;-64
2021/04/12 10:16:24;;;;;;;5.50;4.90;;;;;;;4.93;73.28;97586.69;4969330;28;20177;-64
2021/04/12 10:19:04;;;;;;;5.33;4.77;;;;;;;4.83;73.57;97582.69;4971484;28;20191;-64
2021/04/12 10:21:35;;;;;;;5.97;4.43;;;;;;;4.59;73.34;97587.03;4972445;28;20262;-65
2021/04/12 10:24:25;;;;;;;6.20;4.47;;;;;;;4.51;72.77;97594.03;4971550;28;20200;-65
2021/04/12 10:27:14;;;;;;;5.30;4.77;;;;;;;4.30;74.69;97583.41;4971763;28;20184;-65
2021/04/12 10:29:44;;;;;;;6.10;4.73;;;;;;;4.12;74.64;97591.41;4972726;28;20191;-65
2021/04/12 10:32:15;;;;;;;7.87;5.10;;;;;;;4.51;73.98;97581.06;4971450;28;20161;-65
2021/04/12 10:34:46;;;;;;;5.23;4.60;;;;;;;4.80;74.10;97583.00;4971931;28;20528;-65
2021/04/12 10:37:27;;;;;;;4.30;3.90;;;;;;;4.62;71.69;97579.88;4970391;28;20188;-65
2021/04/12 10:40:11;;;;;;;5.60;4.00;;;;;;;4.97;70.78;97587.97;4970925;28;20181;-65
2021/04/12 10:42:48;;;;;;;3.30;3.00;;;;;;;4.74;67.32;97587.09;4974265;28;20180;-66
2021/04/12 10:45:25;;;;;;;6.73;3.90;;;;;;;4.80;68.81;97580.41;4958194;28;20180;-65
2021/04/12 10:48:00;;;;;;;4.23;3.30;;;;;;;5.11;66.95;97578.63;4957746;28;20203;-65
2021/04/12 10:51:02;;;;;;;2.97;2.70;;;;;;;5.51;64.03;97587.94;4961928;28;20192;-65
2021/04/12 10:54:00;;;;;;;4.80;3.70;;;;;;;5.89;67.67;97577.53;4976428;28;20236;-65
2021/04/12 10:56:43;;;;;;;3.90;2.87;;;;;;;5.99;62.37;97572.88;4933854;29;20201;-66
2021/04/12 10:59:47;;;;;;;3.57;2.60;;;;;;;6.41;58.86;97570.47;4955822;28;20172;-66
2021/04/12 11:02:21;;;;;;;4.73;2.90;;;;;;;6.62;58.07;97573.16;4903142;29;20277;-65
2021/04/12 11:04:54;;;;;;;3.00;2.80;;;;;;;6.87;58.63;97565.81;4915127;29;20211;-65
2021/04/12 11:07:51;;;;;;;3.47;3.17;;;;;;;6.67;57.31;97570.00;4946547;28;20207;-65
2021/04/12 11:10:38;;;;;;;3.47;3.00;;;;;;;6.81;57.76;97579.56;4955346;28;20284;-65
2021/04/12 11:13:16;;;;;;;3.20;3.00;;;;;;;6.31;57.25;97588.16;4974813;28;20223;-64
2021/04/12 11:16:05;;;;;;;5.17;3.53;;;;;;;6.54;58.39;97578.44;4975253;28;20280;-65
2021/04/12 11:18:34;;;;;;;4.37;2.97;;;;;;;6.87;56.92;97585.84;4958145;28;20634;-65
2021/04/12 11:21:22;;;;;;;3.10;2.87;;;;;;;6.54;56.11;97582.84;4957151;28;20189;-64
2021/04/12 11:24:28;;;;;;;4.10;3.10;;;;;;;6.17;57.82;97583.78;4962044;28;20205;-63
2021/04/12 11:27:30;;;;;;;4.47;3.37;;;;;;;6.16;58.90;97587.34;4956866;28;20200;-64
2021/04/12 11:30:24;;;;;;;3.00;2.80;;;;;;;6.36;59.59;97582.41;4955592;29;20317;-64
2021/04/12 11:33:07;;;;;;;3.17;2.87;;;;;;;6.64;58.53;97584.19;4952026;28;20664;-63
2021/04/12 11:35:51;;;;;;;4.97;2.80;;;;;;;7.16;58.11;97588.38;4957936;28;20291;-64
2021/04/12 11:38:56;;;;;;;3.30;3.00;;;;;;;7.06;56.88;97590.47;4963694;28;20239;-63
2021/04/12 11:41:48;;;;;;;3.33;3.03;;;;;;;6.35;55.97;97584.22;4974158;28;20200;-63
2021/04/12 11:44:20;;;;;;;3.27;2.97;;;;;;;6.07;56.31;97594.44;4955244;28;20279;-63
2021/04/12 11:47:13;;;;;;;4.40;3.00;;;;;;;5.77;58.38;97596.16;4975215;28;20255;-63
2021/04/12 11:50:16;;;;;;;3.20;3.00;;;;;;;5.79;58.74;97594.19;4959594;28;20185;-63
2021/04/12 11:52:56;;;;;;;6.03;3.17;;;;;;;5.90;59.10;97600.78;4964499;28;20227;-64
2021/04/12 11:55:28;;;;;;;2.97;2.77;;;;;;;6.28;57.73;97598.13;4955908;28;20224;-65
2021/04/12 11:58:28;;;;;;;2.83;2.63;;;;;;;6.73;57.38;97600.53;4974375;28;20189;-63
2021/04/12 12:01:02;;;;;;;5.77;3.10;;;;;;;7.04;54.74;97601.09;4936235;28;20650;-65
2021/04/12 12:03:34;;;;;;;2.80;2.60;;;;;;;6.42;51.84;97590.31;4975032;28;20209;-65
2021/04/12 12:06:16;;;;;;;3.27;2.60;;;;;;;6.82;52.18;97602.03;4974226;28;20192;-64
2021/04/12 12:09:03;;;;;;;2.83;2.63;;;;;;;6.96;49.25;97601.22;4974319;28;20200;-64
2021/04/12 12:12:05;;;;;;;2.60;2.50;;;;;;;7.27;50.98;97608.75;4974364;28;20185;-66
2021/04/12 12:14:47;;;;;;;3.57;2.30;;;;;;;7.73;50.75;97603.97;4974682;28;20620;-64
2021/04/12 12:17:24;;;;;;;4.60;3.07;;;;;;;8.15;49.21;97602.25;4973789;28;20208;-64
2021/04/12 12:20:01;;;;;;;5.47;3.40;;;;;;;8.21;47.63;97594.47;4938098;29;20256;-64
2021/04/12 12:22:50;;;;;;;3.17;2.97;;;;;;;8.24;48.32;97604.56;4972715;28;20251;-65
2021/04/12 12:25:52;;;;;;;3.40;3.10;;;;;;;8.20;46.80;97597.25;4973747;28;20177;-64
2021/04/12 12:28:23;;;;;;;3.33;3.03;;;;;;;8.08;48.24;97604.03;4914149;29;20265;-64
2021/04/12 12:31:31;;;;;;;3.93;3.23;;;;;;;7.30;48.64;97605.75;4965217;28;20205;-64
2021/04/12 12:34:18;;;;;;;4.87;3.60;;;;;;;7.05;51.49;97607.91;4973580;28;20184;-65
2021/04/12 12:36:55;;;;;;;3.07;2.87;;;;;;;6.70;52.91;97611.28;4960777;28;20264;-66
2021/04/12 12:39:29;;;;;;;4.03;3.10;;;;;;;7.04;51.71;97619.31;4974076;28;20204;-65
2021/04/12 12:42:01;;;;;;;4.63;3.23;;;;;;;7.18;50.93;97614.28;4955737;28;20192;-65
2021/04/12 12:44:28;;;;;;;3.60;3.30;;;;;;;6.98;50.87;97617.44;4955931;28;20177;-66
2021/04/12 12:46:55;;;;;;;4.00;3.30;;;;;;;7.13;51.62;97614.84;4973834;28;20201;-65
2021/04/12 12:49:20;;;;;;;3.10;2.90;;;;;;;7.31;49.96;97620.41;4973891;28;20212;-66
2021/04/12 12:51:57;;;;;;;4.53;3.03;;;;;;;7.33;49.71;97612.41;4955479;28;20668;-66
2021/04/12 12:54:46;;;;;;;3.00;2.80;;;;;;;7.43;50.05;97613.72;4956046;28;20271;-66
2021/04/12 12:57:14;;;;;;;3.07;2.87;;;;;;;7.28;47.81;97605.16;4957237;28;20386;-65
2021/04/12 12:59:43;;;;;;;3.07;2.87;;;;;;;7.49;49.13;97610.38;4973929;28;20204;-65
2021/04/12 13:02:20;;;;;;;3.60;3.30;;;;;;;7.44;47.78;97606.72;4973091;28;20200;-65